Litroe, Louisiana
Current Conditions -  °F | °C
As of 12:15 PM on Saturday 25 Oct 2014 (Local Time) from KBQP Reporting Station
Clear Clear  
Wind Chill: 78°   Ceiling: Unl
Heat Index: 79°   Visibility: 10mi
Dew Point: 59°   Wind: 6mph
Humidity: 52%   Direction: 260°W
Pressure: 30.16"   Gusts: NA
Location:  32.906°N, 92.243°W
Report Text: KBQP 251715Z AUTO 26005KT 10SM CLR 26/15 A3016 RMK AO2 T02550149
Loading
Personal Weather Stations






























Interactive Weather Map
Tropical Storm Tracking
New forecast layout! Learn more

10-Day Weather Forecast

Advertisements
Track Severe Weather on mobile